createdAt,value
2022-12-05T00:00:19.236Z,73.91
2022-12-05T00:03:23.222Z,73.19
2022-12-05T00:06:27.553Z,72.50
2022-12-05T00:09:31.369Z,72.65
2022-12-05T00:12:35.377Z,74.23
2022-12-05T00:15:39.008Z,74.16
2022-12-05T00:18:43.059Z,73.02
2022-12-05T00:21:47.318Z,73.46
2022-12-05T00:24:51.040Z,70.60
2022-12-05T00:27:54.869Z,73.02
2022-12-05T00:30:59.895Z,72.47
2022-12-05T00:34:03.963Z,72.84
2022-12-05T00:37:08.084Z,73.51
2022-12-05T00:40:12.202Z,74.06
2022-12-05T00:43:16.030Z,72.42
2022-12-05T00:46:20.189Z,73.20
2022-12-05T00:49:24.155Z,72.66
2022-12-05T00:52:28.136Z,73.05
2022-12-05T00:55:32.209Z,73.74
2022-12-05T00:58:35.889Z,72.65
2022-12-05T01:01:40.340Z,73.19
2022-12-05T01:04:44.562Z,76.70
2022-12-05T01:07:48.564Z,75.57
2022-12-05T01:10:53.480Z,75.40
2022-12-05T01:13:57.092Z,74.14
2022-12-05T01:17:01.455Z,74.02
2022-12-05T01:20:05.535Z,73.55
2022-12-05T01:23:09.686Z,74.35
2022-12-05T01:26:13.525Z,75.03
2022-12-05T01:29:17.708Z,72.93
2022-12-05T01:32:21.854Z,72.20
2022-12-05T01:35:25.911Z,73.43
2022-12-05T01:38:29.915Z,73.51
2022-12-05T01:41:33.752Z,73.94
2022-12-05T01:44:37.820Z,72.58
2022-12-05T01:47:44.288Z,72.76
2022-12-05T01:50:48.294Z,73.17
2022-12-05T01:53:52.013Z,73.97
2022-12-05T01:56:55.930Z,73.32
2022-12-05T02:00:00.304Z,73.19
2022-12-05T02:03:04.843Z,73.99
2022-12-05T02:06:08.687Z,73.16
2022-12-05T02:09:12.874Z,74.10
2022-12-05T02:12:16.989Z,73.70
2022-12-05T02:15:20.968Z,73.97
2022-12-05T02:18:25.099Z,74.78
2022-12-05T02:21:30.483Z,75.00
2022-12-05T02:24:34.468Z,74.46
2022-12-05T02:27:38.448Z,74.73
2022-12-05T02:30:42.549Z,74.61
2022-12-05T02:33:46.613Z,74.14
2022-12-05T02:36:50.777Z,76.96
2022-12-05T02:39:54.652Z,74.28
2022-12-05T02:42:58.750Z,75.16
2022-12-05T02:46:03.144Z,75.41
2022-12-05T02:49:07.107Z,75.69
2022-12-05T02:52:11.258Z,75.89
2022-12-05T02:55:15.201Z,74.77
2022-12-05T02:58:19.284Z,75.23
2022-12-05T03:01:23.539Z,76.23
2022-12-05T03:04:27.588Z,74.81
2022-12-05T03:07:31.643Z,73.78
2022-12-05T03:10:35.711Z,74.51
2022-12-05T03:13:39.839Z,73.93
2022-12-05T03:16:43.948Z,73.10
2022-12-05T03:19:48.070Z,72.12
2022-12-05T03:22:51.972Z,72.00
2022-12-05T03:25:56.047Z,71.95
2022-12-05T03:29:00.151Z,73.14
2022-12-05T03:32:04.244Z,71.94
2022-12-05T03:35:08.171Z,72.02
2022-12-05T03:38:12.422Z,72.74
2022-12-05T03:41:16.766Z,73.91
2022-12-05T03:44:20.932Z,73.06
2022-12-05T03:47:24.709Z,73.05
2022-12-05T03:50:28.832Z,72.63
2022-12-05T03:53:34.349Z,73.18
2022-12-05T03:56:38.565Z,72.84
2022-12-05T03:59:42.665Z,73.14
2022-12-05T04:02:46.459Z,73.12
2022-12-05T04:05:50.309Z,73.79
2022-12-05T04:08:54.297Z,73.85
2022-12-05T04:11:58.127Z,72.75
2022-12-05T04:15:02.215Z,72.73
2022-12-05T04:18:06.207Z,73.58
2022-12-05T04:21:10.249Z,72.54
2022-12-05T04:24:14.317Z,72.80
2022-12-05T04:27:18.470Z,73.16
2022-12-05T04:30:22.637Z,72.37
2022-12-05T04:33:26.521Z,72.49
2022-12-05T04:36:30.511Z,72.85
2022-12-05T04:39:34.741Z,73.60
2022-12-05T04:42:38.744Z,74.55
2022-12-05T04:45:42.832Z,74.21
2022-12-05T04:48:46.901Z,72.55
2022-12-05T04:51:50.871Z,72.18
2022-12-05T04:54:55.088Z,71.78
2022-12-05T04:57:59.261Z,71.11
2022-12-05T05:01:05.972Z,70.59
2022-12-05T05:04:10.048Z,70.77
2022-12-05T05:07:14.059Z,69.46
2022-12-05T05:10:18.091Z,69.64
2022-12-05T05:13:21.784Z,68.87
2022-12-05T05:16:25.712Z,68.51
2022-12-05T05:19:29.828Z,69.23
2022-12-05T05:22:34.042Z,69.07
2022-12-05T05:25:38.288Z,68.93
2022-12-05T05:28:42.332Z,69.03
2022-12-05T05:31:46.416Z,70.54
2022-12-05T05:34:50.305Z,69.72
2022-12-05T05:37:54.435Z,69.16
2022-12-05T05:40:58.854Z,70.89
2022-12-05T05:44:02.668Z,69.83
2022-12-05T05:47:06.523Z,71.29
2022-12-05T05:50:10.705Z,72.16
2022-12-05T05:53:16.112Z,70.70
2022-12-05T05:56:21.716Z,72.23
2022-12-05T05:59:26.269Z,72.02
2022-12-05T06:02:29.932Z,71.65
2022-12-05T06:05:34.026Z,72.01
2022-12-05T06:08:38.332Z,72.08
2022-12-05T06:11:42.322Z,70.95
2022-12-05T06:14:46.572Z,71.48
2022-12-05T06:17:50.831Z,70.66
2022-12-05T06:20:55.253Z,70.93
2022-12-05T06:24:01.104Z,71.26
2022-12-05T06:27:04.992Z,71.24
2022-12-05T06:30:08.921Z,72.00
2022-12-05T06:33:12.774Z,71.79
2022-12-05T06:36:17.122Z,70.46
2022-12-05T06:39:21.088Z,72.02
2022-12-05T06:42:25.180Z,71.75
2022-12-05T06:45:29.130Z,72.07
2022-12-05T06:48:33.105Z,73.47
2022-12-05T06:51:37.208Z,73.36
2022-12-05T06:54:41.406Z,73.29
2022-12-05T06:57:45.535Z,72.59
2022-12-05T07:00:49.547Z,72.39
2022-12-05T07:03:53.498Z,75.08
2022-12-05T07:06:59.662Z,75.98
2022-12-05T07:10:03.699Z,75.33
2022-12-05T07:13:10.045Z,74.89
2022-12-05T07:16:15.615Z,73.02
2022-12-05T07:19:19.567Z,72.02
2022-12-05T07:22:23.550Z,72.02
2022-12-05T07:25:27.648Z,73.51
2022-12-05T07:28:31.873Z,74.21
2022-12-05T07:31:35.774Z,74.12
2022-12-05T07:34:39.562Z,74.86
2022-12-05T07:37:43.606Z,73.33
2022-12-05T07:40:47.946Z,71.58
2022-12-05T07:43:52.070Z,72.31
2022-12-05T07:46:55.886Z,71.66
2022-12-05T07:50:00.227Z,72.36
2022-12-05T07:53:04.696Z,72.17
2022-12-05T07:56:08.943Z,72.68
2022-12-05T07:59:12.942Z,72.78
2022-12-05T08:02:16.880Z,72.14
2022-12-05T08:05:20.870Z,72.62
2022-12-05T08:08:25.037Z,71.64
2022-12-05T08:11:28.965Z,71.80
2022-12-05T08:14:32.970Z,72.58
2022-12-05T08:17:36.838Z,71.36
2022-12-05T08:20:41.019Z,71.91
2022-12-05T08:23:45.094Z,71.34
2022-12-05T08:26:49.059Z,69.81
2022-12-05T08:29:52.874Z,69.88
2022-12-05T08:32:56.914Z,70.13
2022-12-05T08:36:01.053Z,69.89
2022-12-05T08:39:05.111Z,68.92
2022-12-05T08:42:08.969Z,68.93
2022-12-05T08:45:12.921Z,68.52
2022-12-05T08:48:17.023Z,67.11
2022-12-05T08:51:21.044Z,67.97
2022-12-05T08:54:24.960Z,66.91
2022-12-05T08:57:28.874Z,67.28
2022-12-05T09:00:32.898Z,67.55
2022-12-05T09:03:36.880Z,67.37
2022-12-05T09:06:40.711Z,66.05
2022-12-05T09:09:44.684Z,66.83
2022-12-05T09:12:48.603Z,65.75
2022-12-05T09:15:52.770Z,66.20
2022-12-05T09:18:56.884Z,66.82
2022-12-05T09:22:00.814Z,66.19
2022-12-05T09:25:04.764Z,67.22
2022-12-05T09:28:08.715Z,66.69
2022-12-05T09:31:12.896Z,66.64
2022-12-05T09:34:16.806Z,65.06
2022-12-05T09:37:37.408Z,66.36
2022-12-05T09:40:41.443Z,66.46
2022-12-05T09:43:45.331Z,66.50
2022-12-05T09:46:49.470Z,66.06
2022-12-05T09:49:53.296Z,65.70
2022-12-05T09:52:57.370Z,66.83
2022-12-05T09:56:01.340Z,66.52
2022-12-05T09:59:05.624Z,65.87
2022-12-05T10:02:09.657Z,67.57
2022-12-05T10:05:13.556Z,66.51
2022-12-05T10:08:17.424Z,66.08
2022-12-05T10:11:21.379Z,66.38
2022-12-05T10:14:25.598Z,66.18
2022-12-05T10:17:29.756Z,64.81
2022-12-05T10:20:33.824Z,63.54
2022-12-05T10:27:01.455Z,64.64
2022-12-05T10:30:05.471Z,63.80
2022-12-05T10:33:09.904Z,64.62
2022-12-05T10:36:13.562Z,66.02
2022-12-05T10:39:17.426Z,65.06
2022-12-05T10:42:21.411Z,64.36
2022-12-05T10:45:25.577Z,63.32
2022-12-05T10:48:29.479Z,64.28
2022-12-05T10:51:37.485Z,64.60
2022-12-05T10:54:42.094Z,64.77
2022-12-05T10:57:45.973Z,64.46
2022-12-05T11:00:50.058Z,64.55
2022-12-05T11:03:54.205Z,64.86
2022-12-05T11:06:58.205Z,64.17
2022-12-05T11:10:02.185Z,63.39
2022-12-05T11:13:06.242Z,65.64
2022-12-05T11:16:10.265Z,65.52
2022-12-05T11:19:15.826Z,65.98
2022-12-05T11:22:19.927Z,66.06
2022-12-05T11:25:23.879Z,64.83
2022-12-05T11:28:27.894Z,64.03
2022-12-05T11:31:32.260Z,65.24
2022-12-05T11:34:36.118Z,64.18
2022-12-05T11:37:39.951Z,64.40
2022-12-05T11:40:44.192Z,64.46
2022-12-05T11:43:48.292Z,62.85
2022-12-05T11:46:52.467Z,62.23
2022-12-05T11:49:56.286Z,60.82
2022-12-05T11:53:00.196Z,61.86
2022-12-05T11:56:04.431Z,62.52
2022-12-05T11:59:08.495Z,63.51
2022-12-05T12:02:12.736Z,63.29
2022-12-05T12:05:16.685Z,62.22
2022-12-05T12:08:20.558Z,62.47
2022-12-05T12:11:24.725Z,61.64
2022-12-05T12:14:28.825Z,60.67
2022-12-05T12:17:32.962Z,60.72
2022-12-05T12:20:37.047Z,61.49
2022-12-05T12:23:40.888Z,61.19
2022-12-05T12:26:45.063Z,60.53
2022-12-05T12:29:49.167Z,59.97
2022-12-05T12:32:53.326Z,61.03
2022-12-05T12:35:57.250Z,60.76
2022-12-05T12:39:01.287Z,60.21
2022-12-05T12:42:05.456Z,61.50
2022-12-05T12:45:09.394Z,62.49
2022-12-05T12:48:13.187Z,62.28
2022-12-05T12:51:16.913Z,62.37
2022-12-05T12:54:34.420Z,61.98
2022-12-05T12:57:45.107Z,63.00
2022-12-05T13:00:49.361Z,62.08
2022-12-05T13:03:53.532Z,62.42
2022-12-05T13:06:57.347Z,61.93
2022-12-05T13:10:01.176Z,62.54
2022-12-05T13:13:05.434Z,61.85
2022-12-05T13:16:09.645Z,61.47
2022-12-05T13:19:13.327Z,61.97
2022-12-05T13:22:17.428Z,61.30
2022-12-05T13:25:21.043Z,60.56
2022-12-05T13:28:26.152Z,61.22
2022-12-05T13:31:30.352Z,60.47
2022-12-05T13:34:34.317Z,59.39
2022-12-05T13:37:38.167Z,59.28
2022-12-05T13:40:42.575Z,58.34
2022-12-05T13:43:53.416Z,59.38
2022-12-05T13:47:04.424Z,58.27
2022-12-05T13:50:08.528Z,55.77
2022-12-05T13:53:12.876Z,56.65
2022-12-05T13:56:17.288Z,58.67
2022-12-05T13:59:21.566Z,57.40
2022-12-05T14:02:25.555Z,57.45
2022-12-05T14:05:29.793Z,57.98
2022-12-05T14:08:34.103Z,56.08
2022-12-05T14:11:38.222Z,56.71
2022-12-05T14:14:42.453Z,55.38
2022-12-05T14:17:46.551Z,57.04
2022-12-05T14:20:50.628Z,57.08
2022-12-05T14:23:54.645Z,57.04
2022-12-05T14:26:58.679Z,58.05
2022-12-05T14:30:02.672Z,56.68
2022-12-05T14:33:06.583Z,56.41
2022-12-05T14:36:10.507Z,57.65
2022-12-05T14:39:14.708Z,57.60
2022-12-05T14:42:18.882Z,57.62
2022-12-05T14:45:22.725Z,57.99
2022-12-05T14:48:26.775Z,56.69
2022-12-05T14:51:30.958Z,58.71
2022-12-05T14:54:34.936Z,56.30
2022-12-05T14:57:38.755Z,56.69
2022-12-05T15:00:46.594Z,57.72
2022-12-05T15:03:51.941Z,55.83
2022-12-05T15:06:55.919Z,56.02
2022-12-05T15:10:00.226Z,57.03
2022-12-05T15:13:04.580Z,57.46
2022-12-05T15:16:08.550Z,56.41
2022-12-05T15:19:12.512Z,57.10
2022-12-05T15:22:16.386Z,57.19
2022-12-05T15:25:20.592Z,58.60
2022-12-05T15:28:24.721Z,57.46
2022-12-05T15:31:28.967Z,56.90
2022-12-05T15:34:33.255Z,55.14
2022-12-05T15:37:37.208Z,54.10
2022-12-05T15:40:41.374Z,55.00
2022-12-05T15:43:45.433Z,57.44
2022-12-05T15:46:49.232Z,60.67
2022-12-05T15:49:53.489Z,61.39
2022-12-05T15:52:57.375Z,62.57
2022-12-05T15:56:01.760Z,61.31
2022-12-05T15:59:05.575Z,61.06
2022-12-05T16:02:09.738Z,60.89
2022-12-05T16:05:14.065Z,60.50
2022-12-05T16:08:18.348Z,59.25
2022-12-05T16:11:22.124Z,60.42
2022-12-05T16:14:58.356Z,58.73
2022-12-05T16:17:53.034Z,60.29
2022-12-05T16:20:57.074Z,60.55
2022-12-05T16:24:00.892Z,60.66
2022-12-05T16:27:05.059Z,60.00
2022-12-05T16:30:09.217Z,59.94
2022-12-05T16:33:13.185Z,59.82
2022-12-05T16:36:17.262Z,59.27
2022-12-05T16:39:21.554Z,59.62
2022-12-05T16:42:26.059Z,61.20
2022-12-05T16:45:33.199Z,61.38
2022-12-05T16:48:37.492Z,59.46
2022-12-05T16:51:42.728Z,60.54
2022-12-05T16:54:49.878Z,60.05
2022-12-05T16:57:54.507Z,59.42
2022-12-05T17:01:01.076Z,58.68
2022-12-05T17:04:06.928Z,59.50
2022-12-05T17:17:56.512Z,59.52
2022-12-05T17:24:40.110Z,60.29
2022-12-05T17:27:44.768Z,60.23
2022-12-05T17:37:38.480Z,60.79
2022-12-05T17:58:30.768Z,60.08
2022-12-05T18:01:36.293Z,59.84
2022-12-05T18:04:40.299Z,59.61
2022-12-05T18:07:45.709Z,59.57
2022-12-05T18:11:02.584Z,60.07
2022-12-05T18:14:07.983Z,59.31
2022-12-05T18:17:18.044Z,58.71
2022-12-05T18:20:28.796Z,59.18
2022-12-05T18:23:37.512Z,60.01
2022-12-05T18:26:55.920Z,59.89
2022-12-05T18:33:36.063Z,60.78
2022-12-05T18:36:42.912Z,61.22
2022-12-05T18:39:47.482Z,61.29
2022-12-05T18:42:51.753Z,60.97
2022-12-05T18:45:55.694Z,61.10
2022-12-05T18:49:03.367Z,60.97
2022-12-05T18:52:18.536Z,60.95
2022-12-05T18:55:51.972Z,61.08
2022-12-05T18:59:07.480Z,60.25
2022-12-05T19:05:49.329Z,60.11
2022-12-05T19:08:54.561Z,60.27
2022-12-05T19:12:27.722Z,60.48
2022-12-05T19:15:32.324Z,60.03
2022-12-05T19:22:11.928Z,60.92
2022-12-05T19:25:18.159Z,60.73
2022-12-05T19:28:25.117Z,60.42
2022-12-05T19:31:30.482Z,60.49
2022-12-05T19:34:34.967Z,61.04
2022-12-05T19:37:40.129Z,61.13
2022-12-05T19:40:44.225Z,62.10
2022-12-05T19:43:48.222Z,62.20
2022-12-05T19:46:53.526Z,62.10
2022-12-05T19:49:57.747Z,62.79
2022-12-05T19:53:01.901Z,62.67
2022-12-05T19:56:07.063Z,63.23
2022-12-05T19:59:11.413Z,62.79
2022-12-05T20:02:15.634Z,63.49
2022-12-05T20:05:20.069Z,63.32
2022-12-05T20:08:29.362Z,64.21
2022-12-05T20:11:35.121Z,64.62
2022-12-05T20:14:40.781Z,64.42
2022-12-05T20:17:52.879Z,63.65
2022-12-05T20:20:57.312Z,65.52
2022-12-05T20:24:01.483Z,66.16
2022-12-05T20:27:05.328Z,67.37
2022-12-05T20:30:09.066Z,66.37
2022-12-05T20:33:13.182Z,65.99
2022-12-05T20:36:17.128Z,68.35
2022-12-05T20:39:21.139Z,66.67
2022-12-05T20:42:24.957Z,65.72
2022-12-05T20:45:29.109Z,68.55
2022-12-05T20:48:33.046Z,68.77
2022-12-05T20:51:36.885Z,68.81
2022-12-05T20:54:41.160Z,67.25
2022-12-05T20:57:45.004Z,68.88
2022-12-05T21:00:49.102Z,67.77
2022-12-05T21:03:53.009Z,68.24
2022-12-05T21:06:58.142Z,70.10
2022-12-05T21:10:07.984Z,69.19
2022-12-05T21:13:14.816Z,69.15
2022-12-05T21:16:20.809Z,70.01
2022-12-05T21:19:32.201Z,68.12
2022-12-05T21:22:39.450Z,67.82
2022-12-05T21:25:43.490Z,67.29
2022-12-05T21:28:50.041Z,68.33
2022-12-05T21:31:57.665Z,67.37
2022-12-05T21:35:08.369Z,68.05
2022-12-05T21:38:12.584Z,66.84
2022-12-05T21:41:24.386Z,66.32
2022-12-05T21:44:28.699Z,65.72
2022-12-05T21:47:32.765Z,65.85
2022-12-05T21:50:36.866Z,65.75
2022-12-05T21:53:44.572Z,66.09
2022-12-05T21:56:48.651Z,65.43
2022-12-05T21:59:53.019Z,66.27
2022-12-05T22:02:57.613Z,64.83
2022-12-05T22:06:01.585Z,66.02
2022-12-05T22:09:05.533Z,65.64
2022-12-05T22:12:09.232Z,65.92
2022-12-05T22:15:13.329Z,65.24
2022-12-05T22:18:17.299Z,67.05
2022-12-05T22:21:20.996Z,66.12
2022-12-05T22:24:24.955Z,65.58
2022-12-05T22:27:28.978Z,64.44
2022-12-05T22:30:32.909Z,65.39
2022-12-05T22:33:36.765Z,66.04
2022-12-05T22:36:40.955Z,65.20
2022-12-05T22:39:44.888Z,65.08
2022-12-05T22:42:48.904Z,65.18
2022-12-05T22:45:52.766Z,64.76
2022-12-05T22:48:57.768Z,65.50
2022-12-05T22:52:04.340Z,64.96
2022-12-05T22:55:08.519Z,65.32
2022-12-05T22:58:12.667Z,65.45
2022-12-05T23:01:16.635Z,65.33
2022-12-05T23:04:21.948Z,65.39
2022-12-05T23:07:26.117Z,66.75
2022-12-05T23:10:29.749Z,66.17
2022-12-05T23:13:33.841Z,66.26
2022-12-05T23:16:37.827Z,65.46
2022-12-05T23:19:42.017Z,65.72
2022-12-05T23:22:48.434Z,65.17
2022-12-05T23:25:52.607Z,64.78
2022-12-05T23:28:56.598Z,66.23
2022-12-05T23:32:00.884Z,64.44
2022-12-05T23:35:05.177Z,65.48
2022-12-05T23:38:09.127Z,65.20
2022-12-05T23:41:16.918Z,64.71
2022-12-05T23:44:20.847Z,63.91
2022-12-05T23:47:24.789Z,65.48
2022-12-05T23:50:29.757Z,64.56
2022-12-05T23:53:34.114Z,64.92
2022-12-05T23:56:37.758Z,65.62
2022-12-05T23:59:41.677Z,64.90
